createdAt,value
2023-03-23T15:57:53.083Z,17.60
2023-03-23T16:00:21.929Z,17.50
2023-03-23T16:02:53.070Z,17.50
2023-03-23T16:05:20.532Z,17.50
2023-03-23T16:07:47.989Z,17.50
2023-03-23T16:10:18.028Z,17.60
2023-03-23T16:12:45.942Z,17.50
2023-03-23T16:15:14.825Z,17.40
2023-03-23T16:17:42.485Z,17.30
2023-03-23T16:20:21.045Z,17.30
2023-03-23T16:22:48.580Z,17.20
2023-03-23T16:25:16.503Z,17.20
2023-03-23T16:27:44.504Z,17.20
2023-03-23T16:30:19.965Z,17.10
2023-03-23T16:32:47.394Z,17.10
2023-03-23T16:35:15.346Z,17.00
2023-03-23T16:37:47.059Z,17.00
2023-03-23T16:40:14.912Z,16.90
2023-03-23T16:42:42.464Z,16.90
2023-03-23T16:45:10.578Z,16.70
2023-03-23T16:47:38.453Z,16.70
2023-03-23T16:50:07.830Z,16.70
2023-03-23T16:52:35.312Z,16.70
2023-03-23T16:55:14.874Z,16.60
2023-03-23T16:57:43.487Z,16.60
2023-03-23T17:00:15.305Z,16.50
2023-03-23T17:02:43.250Z,16.50
2023-03-23T17:05:11.224Z,16.50
2023-03-23T17:07:39.355Z,16.50
2023-03-23T17:10:07.541Z,16.40
2023-03-23T17:12:35.057Z,16.40
2023-03-23T17:15:02.985Z,16.40
2023-03-23T17:17:30.477Z,16.30
2023-03-23T17:19:58.111Z,16.30
2023-03-23T17:22:25.777Z,16.20
2023-03-23T17:24:53.106Z,16.20
2023-03-23T17:27:21.255Z,16.20
2023-03-23T17:29:48.893Z,16.20
2023-03-23T17:32:16.306Z,16.20
2023-03-23T17:34:43.620Z,16.20
2023-03-23T17:37:11.192Z,16.10
2023-03-23T17:39:42.555Z,16.10
2023-03-23T17:42:11.114Z,16.10
2023-03-23T17:44:38.622Z,16.10
2023-03-23T17:47:06.381Z,16.00
2023-03-23T17:49:33.700Z,16.00
2023-03-23T17:52:01.076Z,16.00
2023-03-23T17:54:29.701Z,16.00
2023-03-23T17:57:03.817Z,15.90
2023-03-23T17:59:31.671Z,15.90
2023-03-23T18:01:59.071Z,15.90
2023-03-23T18:04:29.220Z,15.80
2023-03-23T18:06:56.763Z,15.80
2023-03-23T18:09:25.168Z,15.70
2023-03-23T18:11:53.004Z,15.70
2023-03-23T18:14:20.823Z,15.70
2023-03-23T18:16:48.447Z,15.60
2023-03-23T18:19:15.881Z,15.60
2023-03-23T18:21:45.740Z,15.60
2023-03-23T18:24:13.576Z,15.60
2023-03-23T18:26:41.888Z,15.60
2023-03-23T18:29:09.185Z,15.60
2023-03-23T18:31:40.079Z,15.60
2023-03-23T18:34:07.742Z,15.50
2023-03-23T18:36:35.362Z,15.50
2023-03-23T18:39:03.714Z,15.50
2023-03-23T18:41:31.156Z,15.50
2023-03-23T18:43:58.499Z,15.50
2023-03-23T18:46:26.434Z,15.50
2023-03-23T18:48:53.949Z,15.40
2023-03-23T18:51:21.341Z,15.50
2023-03-23T18:53:48.670Z,15.50
2023-03-23T18:56:17.191Z,15.50
2023-03-23T18:58:44.974Z,15.50
2023-03-23T19:01:14.694Z,15.50
2023-03-23T19:03:42.249Z,15.50
2023-03-23T19:06:26.957Z,15.40
2023-03-23T19:08:59.814Z,15.40
2023-03-23T19:11:27.505Z,15.40
2023-03-23T19:14:02.584Z,15.40
2023-03-23T19:16:32.286Z,15.30
2023-03-23T19:19:01.519Z,15.30
2023-03-23T19:21:31.516Z,15.30
2023-03-23T19:23:59.862Z,15.30
2023-03-23T19:26:35.835Z,15.30
2023-03-23T19:29:25.958Z,15.30
2023-03-23T19:31:55.539Z,15.30
2023-03-23T19:34:23.763Z,15.20
2023-03-23T19:36:56.296Z,15.20
2023-03-23T19:39:30.957Z,15.20
2023-03-23T19:41:58.589Z,15.20
2023-03-23T19:44:26.388Z,15.20
2023-03-23T19:46:54.057Z,15.20
2023-03-23T19:49:21.489Z,15.10
2023-03-23T19:51:49.017Z,15.10
2023-03-23T19:54:16.441Z,15.10
2023-03-23T19:56:43.838Z,15.10
2023-03-23T19:59:16.308Z,15.10
2023-03-23T20:01:44.304Z,15.10
2023-03-23T20:04:12.395Z,15.00
2023-03-23T20:06:39.991Z,15.00
2023-03-23T20:09:07.537Z,15.00
2023-03-23T20:11:35.187Z,15.00
2023-03-23T20:14:03.481Z,15.00
2023-03-23T20:16:31.318Z,15.00
2023-03-23T20:19:00.133Z,15.00
2023-03-23T20:21:28.205Z,15.00
2023-03-23T20:23:56.946Z,15.00
2023-03-23T20:26:35.941Z,14.90
2023-03-23T20:29:03.804Z,14.90
2023-03-23T20:31:36.822Z,14.90
2023-03-23T20:34:06.998Z,14.90
2023-03-23T20:36:42.275Z,14.90
2023-03-23T20:39:21.071Z,14.90
2023-03-23T20:41:50.828Z,14.90
2023-03-23T20:44:18.841Z,14.80
2023-03-23T20:46:47.643Z,14.80
2023-03-23T20:49:15.922Z,14.80
2023-03-23T20:51:44.807Z,14.90
2023-03-23T20:54:15.626Z,14.80
2023-03-23T20:56:46.985Z,14.80
2023-03-23T20:59:14.571Z,14.80
2023-03-23T21:01:42.051Z,14.80
2023-03-23T21:04:15.142Z,14.80
2023-03-23T21:06:43.546Z,14.80
2023-03-23T21:09:11.363Z,14.80
2023-03-23T21:11:42.367Z,14.80
2023-03-23T21:14:09.781Z,14.80
2023-03-23T21:16:37.107Z,14.80
2023-03-23T21:19:05.300Z,14.80
2023-03-23T21:21:34.141Z,14.80
2023-03-23T21:24:01.533Z,14.80
2023-03-23T21:26:29.928Z,14.80
2023-03-23T21:29:00.711Z,14.80
2023-03-23T21:31:30.511Z,14.70
2023-03-23T21:33:58.759Z,14.70
2023-03-23T21:36:27.395Z,14.70
2023-03-23T21:38:55.376Z,14.60
2023-03-23T21:41:22.904Z,14.60
2023-03-23T21:43:50.324Z,14.60
2023-03-23T21:46:18.229Z,14.50
2023-03-23T21:48:51.281Z,14.50
2023-03-23T21:51:27.304Z,14.50
2023-03-23T21:53:54.928Z,14.50
2023-03-23T21:56:23.668Z,14.40
2023-03-23T21:58:51.603Z,14.40
2023-03-23T22:01:19.467Z,14.40
2023-03-23T22:03:46.947Z,14.40
2023-03-23T22:06:21.034Z,14.40
2023-03-23T22:08:48.405Z,14.30
2023-03-23T22:11:18.471Z,14.30
2023-03-23T22:13:49.130Z,14.30
2023-03-23T22:16:20.738Z,14.20
2023-03-23T22:18:48.504Z,14.20
2023-03-23T22:21:16.603Z,14.20
2023-03-23T22:23:44.322Z,14.10
2023-03-23T22:26:12.167Z,14.10
2023-03-23T22:28:41.305Z,14.10
2023-03-23T22:31:14.253Z,14.00
2023-03-23T22:33:41.643Z,14.00
2023-03-23T22:36:09.562Z,14.00
2023-03-23T22:38:37.947Z,14.00
2023-03-23T22:41:07.134Z,14.00
2023-03-23T22:43:35.636Z,13.90
2023-03-23T22:46:03.908Z,14.00
2023-03-23T22:48:31.591Z,14.00
2023-03-23T22:50:59.081Z,14.00
2023-03-23T22:53:26.448Z,14.00
2023-03-23T22:55:54.999Z,13.90
2023-03-23T22:58:22.781Z,13.90
2023-03-23T23:00:52.074Z,13.90
2023-03-23T23:03:19.504Z,13.90
2023-03-23T23:05:50.317Z,13.90
2023-03-23T23:08:18.145Z,13.90
2023-03-23T23:10:46.764Z,13.90
2023-03-23T23:13:14.521Z,13.90
2023-03-23T23:15:43.725Z,13.90
2023-03-23T23:18:12.428Z,13.80
2023-03-23T23:20:41.061Z,13.80
2023-03-23T23:23:08.542Z,13.80
2023-03-23T23:25:36.453Z,13.80
2023-03-23T23:28:04.398Z,13.80
2023-03-23T23:30:32.127Z,13.80
2023-03-23T23:32:59.591Z,13.70
2023-03-23T23:35:27.054Z,13.70
2023-03-23T23:37:54.530Z,13.70
2023-03-23T23:40:21.911Z,13.70
2023-03-23T23:42:50.003Z,13.70
2023-03-23T23:45:18.125Z,13.70
2023-03-23T23:47:46.581Z,13.70
2023-03-23T23:50:14.552Z,13.70
2023-03-23T23:52:42.683Z,13.70
2023-03-23T23:55:11.513Z,13.70
2023-03-23T23:57:38.918Z,13.70
